Terminal Aerodrome Forecast
Issued by NWS

Current Version | Previous Version | Text Only | Print | Product List | Glossary On
Versions: 1 2 3 4 5 6 7 8 9 10 11 12 13 14 15 16 17 18 19 20 21 22 23 24 25 26 27 28 29 30
269 FTUS41 KGYX 190520 TAFPSM TAF KPSM 190520Z 1906/2006 29005KT P6SM FEW050 SCT200 FM191400 19009KT P6SM SCT100 FM192300 19009KT P6SM BKN025 FM200000 18009KT 4SM -RA OVC008=

USA.gov is the U.S. government's official web portal to all federal, state and local government web resources and services.